Time;durP1;ratioP1;P1;durP2;ratioP2;P2;SDS_P1;SDS_P2;PMS_P1;PMS_P2;Temp;Humidity;BMP_temperature;BMP_pressure;BME280_temperature;BME280_humidity;BME280_pressure;Samples;Min_cycle;Max_cycle;Signal;HPM_P1;HPM_P2
2022/03/14 00:00:11;;;;;;;;;;;;;;;1.82;38.88;99166.28;1686758;84;20507;-82
2022/03/14 00:02:39;;;;;;;;;;;;;;;1.89;38.90;99171.72;1686002;84;22056;-81
2022/03/14 00:05:08;;;;;;;;;;;;;;;1.94;38.90;99173.75;1687072;84;22051;-81
2022/03/14 00:07:38;;;;;;;;;;;;;;;1.97;38.93;99169.78;1685711;84;26764;-81
2022/03/14 00:10:05;;;;;;;;;;;;;;;1.83;38.93;99178.30;1691580;84;25241;-82
2022/03/14 00:12:31;;;;;;;;;;;;;;;1.73;38.93;99174.68;1688932;84;20311;-81
2022/03/14 00:14:59;;;;;;;;;;;;;;;1.75;38.97;99173.75;1686726;84;25048;-81
2022/03/14 00:17:26;;;;;;;;;;;;;;;1.75;38.98;99174.18;1685230;84;22020;-82
2022/03/14 00:19:57;;;;;;;;;;;;;;;1.73;38.99;99174.68;1688347;84;26090;-82
2022/03/14 00:22:23;;;;;;;;;;;;;;;1.68;39.02;99170.92;1686964;83;24541;-82
2022/03/14 00:24:49;;;;;;;;;;;;;;;1.61;39.07;99173.22;1686398;84;20205;-82
2022/03/14 00:27:16;;;;;;;;;;;;;;;1.51;39.10;99176.88;1692831;83;25401;-82
2022/03/14 00:29:42;;;;;;;;;;;;;;;1.57;39.13;99172.89;1671658;84;21607;-82
2022/03/14 00:32:08;;;;;;;;;;;;;;;1.65;39.20;99173.55;1686505;84;26098;-81
2022/03/14 00:34:34;;;;;;;;;;;;;;;1.68;39.23;99167.05;1688965;84;24389;-82
2022/03/14 00:37:01;;;;;;;;;;;;;;;1.73;39.22;99166.50;1688173;83;20152;-81
2022/03/14 00:39:27;;;;;;;;;;;;;;;1.74;39.26;99175.94;1661616;84;24956;-81
2022/03/14 00:41:53;;;;;;;;;;;;;;;1.74;39.30;99175.94;1677014;84;21986;-81
2022/03/14 00:44:19;;;;;;;;;;;;;;;1.73;39.32;99174.24;1674689;84;26089;-81
2022/03/14 00:46:46;;;;;;;;;;;;;;;1.72;39.32;99180.28;1679003;84;24751;-81
2022/03/14 00:49:12;;;;;;;;;;;;;;;1.65;39.33;99175.69;1671736;84;20401;-81
2022/03/14 00:51:40;;;;;;;;;;;;;;;1.67;39.35;99184.70;1674589;84;24970;-82
2022/03/14 00:54:06;;;;;;;;;;;;;;;1.54;39.38;99183.25;1673591;84;22653;-82
2022/03/14 00:56:32;;;;;;;;;;;;;;;1.46;39.38;99181.30;1669944;84;26132;-82
2022/03/14 00:59:01;;;;;;;;;;;;;;;1.30;39.38;99185.93;1673196;84;24282;-82
2022/03/14 01:01:27;;;;;;;;;;;;;;;1.25;39.40;99188.58;1675651;84;20251;-82
2022/03/14 01:03:54;;;;;;;;;;;;;;;1.28;39.46;99189.41;1672008;84;24999;-82
2022/03/14 01:06:21;;;;;;;;;;;;;;;1.28;39.51;99191.98;1674230;84;21967;-82
2022/03/14 01:08:47;;;;;;;;;;;;;;;1.20;39.52;99191.69;1671566;84;26058;-82
2022/03/14 01:11:13;;;;;;;;;;;;;;;1.14;39.54;99191.84;1672265;84;24496;-82
2022/03/14 01:13:40;;;;;;;;;;;;;;;1.09;39.58;99192.34;1670683;84;20240;-82
2022/03/14 01:16:11;;;;;;;;;;;;;;;1.03;39.56;99192.48;1671355;84;25121;-82
2022/03/14 01:18:34;;;;;;;;;;;;;;;1.08;39.57;99194.97;1670254;84;22110;-82
2022/03/14 01:21:00;;;;;;;;;;;;;;;1.10;39.64;99191.91;1674622;84;26231;-82
2022/03/14 01:23:32;;;;;;;;;;;;;;;1.13;39.69;99194.00;1662333;84;24704;-82
2022/03/14 01:26:03;;;;;;;;;;;;;;;1.17;39.70;99189.62;1644565;85;20244;-82
2022/03/14 01:28:26;;;;;;;;;;;;;;;1.17;39.72;99194.78;1639621;86;24959;-82
2022/03/14 01:30:52;;;;;;;;;;;;;;;1.14;39.74;99195.70;1662116;85;21992;-83
2022/03/14 01:33:19;;;;;;;;;;;;;;;1.17;39.75;99192.20;1662006;85;26196;-82
2022/03/14 01:35:45;;;;;;;;;;;;;;;1.19;39.77;99195.61;1660424;85;24555;-81
2022/03/14 01:38:11;;;;;;;;;;;;;;;1.08;39.78;99197.11;1657433;85;21165;-81
2022/03/14 01:40:37;;;;;;;;;;;;;;;0.93;39.79;99195.27;1643625;85;25076;-81
2022/03/14 01:43:03;;;;;;;;;;;;;;;0.85;39.80;99200.56;1656120;85;20312;-82
2022/03/14 01:45:29;;;;;;;;;;;;;;;0.85;39.85;99203.13;1658947;85;26044;-81
2022/03/14 01:47:55;;;;;;;;;;;;;;;0.78;39.86;99201.54;1647119;85;25129;-82
2022/03/14 01:50:22;;;;;;;;;;;;;;;0.89;39.87;99209.06;1645125;86;20326;-82
2022/03/14 01:52:48;;;;;;;;;;;;;;;1.00;39.87;99208.43;1643025;86;25083;-82
2022/03/14 01:55:15;;;;;;;;;;;;;;;1.13;39.86;99202.17;1666177;85;22636;-82
2022/03/14 01:57:41;;;;;;;;;;;;;;;1.23;39.86;99203.68;1663524;85;25998;-82
2022/03/14 02:00:09;;;;;;;;;;;;;;;1.36;39.82;99201.28;1662263;85;24638;-82
2022/03/14 02:02:35;;;;;;;;;;;;;;;1.44;39.76;99201.09;1664891;85;20184;-82
2022/03/14 02:05:01;;;;;;;;;;;;;;;1.47;39.76;99201.05;1665252;85;25053;-82
2022/03/14 02:07:28;;;;;;;;;;;;;;;1.46;39.72;99204.50;1663463;85;22034;-82
2022/03/14 02:09:54;;;;;;;;;;;;;;;1.42;39.75;99208.86;1662673;85;26050;-82
2022/03/14 02:12:23;;;;;;;;;;;;;;;1.42;39.78;99214.02;1661843;85;24673;-83
2022/03/14 02:14:49;;;;;;;;;;;;;;;1.44;39.78;99213.99;1660338;85;20251;-82
2022/03/14 02:17:21;;;;;;;;;;;;;;;1.44;39.81;99218.71;1660879;85;25050;-82
2022/03/14 02:19:47;;;;;;;;;;;;;;;1.41;39.85;99219.23;1662551;85;21958;-82
2022/03/14 02:22:14;;;;;;;;;;;;;;;1.39;39.88;99223.55;1663481;85;26205;-82
2022/03/14 02:24:46;;;;;;;;;;;;;;;1.44;39.90;99214.84;1655297;85;24424;-82
2022/03/14 02:27:11;;;;;;;;;;;;;;;1.48;39.90;99215.62;1662428;85;20247;-82
2022/03/14 02:29:39;;;;;;;;;;;;;;;1.49;39.89;99217.32;1657261;85;25144;-82
2022/03/14 02:32:06;;;;;;;;;;;;;;;1.41;39.88;99220.08;1664781;84;21998;-82
2022/03/14 02:34:32;;;;;;;;;;;;;;;1.28;39.85;99219.91;1664221;85;26628;-82
2022/03/14 02:36:58;;;;;;;;;;;;;;;1.21;39.84;99222.19;1666522;85;24540;-82
2022/03/14 02:39:27;;;;;;;;;;;;;;;1.08;39.82;99231.91;1661788;85;20246;-82
2022/03/14 02:41:53;;;;;;;;;;;;;;;1.03;39.85;99229.00;1663224;85;25063;-82
2022/03/14 02:44:19;;;;;;;;;;;;;;;1.09;39.89;99234.87;1645282;86;22708;-82
2022/03/14 02:46:45;;;;;;;;;;;;;;;1.07;39.92;99239.66;1658281;85;26088;-82
2022/03/14 02:49:12;;;;;;;;;;;;;;;0.94;39.93;99237.73;1645356;86;24504;-82
2022/03/14 02:51:39;;;;;;;;;;;;;;;0.81;39.96;99233.27;1649024;86;20232;-82
2022/03/14 02:54:08;;;;;;;;;;;;;;;0.71;40.02;99232.17;1663457;85;24937;-82
2022/03/14 02:56:34;;;;;;;;;;;;;;;0.56;40.04;99238.84;1666948;84;22047;-82
2022/03/14 02:59:01;;;;;;;;;;;;;;;0.43;40.08;99233.52;1661298;85;26099;-82
2022/03/14 03:01:27;;;;;;;;;;;;;;;0.33;40.13;99238.79;1658701;85;24390;-81
2022/03/14 03:03:54;;;;;;;;;;;;;;;0.28;40.17;99238.45;1666658;85;20208;-82
2022/03/14 03:06:23;;;;;;;;;;;;;;;0.21;40.22;99236.43;1666330;85;24974;-81
2022/03/14 03:08:53;;;;;;;;;;;;;;;0.21;40.27;99241.58;1664381;85;22085;-81
2022/03/14 03:11:21;;;;;;;;;;;;;;;0.22;40.37;99236.00;1664034;85;26227;-81
2022/03/14 03:13:47;;;;;;;;;;;;;;;0.22;40.44;99244.54;1655348;85;24531;-81
2022/03/14 03:16:16;;;;;;;;;;;;;;;0.09;40.47;99244.77;1664229;85;20475;-81
2022/03/14 03:18:42;;;;;;;;;;;;;;;0.03;40.45;99254.70;1663245;85;24990;-81
2022/03/14 03:21:09;;;;;;;;;;;;;;;0.10;40.49;99251.62;1662555;85;22046;-81
2022/03/14 03:23:35;;;;;;;;;;;;;;;0.10;40.54;99249.90;1659365;85;26135;-81
2022/03/14 03:26:02;;;;;;;;;;;;;;;0.13;40.57;99252.41;1660701;85;24556;-82
2022/03/14 03:28:35;;;;;;;;;;;;;;;0.18;40.61;99256.20;1662205;85;20207;-82
2022/03/14 03:30:56;;;;;;;;;;;;;;;0.21;40.66;99255.73;1658398;85;25093;-82
2022/03/14 03:33:22;;;;;;;;;;;;;;;0.24;40.70;99253.53;1661481;85;22062;-82
2022/03/14 03:35:48;;;;;;;;;;;;;;;0.21;40.75;99248.45;1663896;85;26151;-82
2022/03/14 03:38:15;;;;;;;;;;;;;;;0.27;40.79;99255.61;1666247;85;24630;-82
2022/03/14 03:40:41;;;;;;;;;;;;;;;0.23;40.83;99253.97;1666701;85;20231;-82
2022/03/14 03:43:07;;;;;;;;;;;;;;;0.17;40.86;99256.63;1665817;85;25141;-81
2022/03/14 03:45:33;;;;;;;;;;;;;;;0.14;40.90;99257.98;1665963;85;22158;-82
2022/03/14 03:47:59;;;;;;;;;;;;;;;0.12;40.95;99260.14;1655563;85;26038;-82
2022/03/14 03:50:26;;;;;;;;;;;;;;;0.05;41.00;99263.27;1664136;85;24470;-82
2022/03/14 03:52:52;;;;;;;;;;;;;;;0.00;41.07;99267.16;1661445;85;20294;-82
2022/03/14 03:55:18;;;;;;;;;;;;;;;-0.01;41.13;99263.35;1641370;85;24580;-82
2022/03/14 03:57:45;;;;;;;;;;;;;;;-0.04;41.15;99265.95;1628030;87;22687;-81
2022/03/14 04:00:19;;;;;;;;;;;;;;;-0.01;41.22;99265.92;1650552;85;26846;-82
2022/03/14 04:02:45;;;;;;;;;;;;;;;0.02;41.28;99269.73;1653511;85;24413;-81
2022/03/14 04:05:13;;;;;;;;;;;;;;;0.04;41.35;99272.28;1655323;85;20360;-81
2022/03/14 04:07:40;;;;;;;;;;;;;;;0.09;41.42;99273.92;1649928;85;25778;-82
2022/03/14 04:10:07;;;;;;;;;;;;;;;0.15;41.45;99278.13;1650032;86;22038;-80
2022/03/14 04:12:33;;;;;;;;;;;;;;;0.11;41.51;99271.34;1673055;85;26154;-82
2022/03/14 04:15:06;;;;;;;;;;;;;;;0.05;41.54;99270.98;1662500;85;24668;-82
2022/03/14 04:17:28;;;;;;;;;;;;;;;0.07;41.58;99275.66;1663163;85;20279;-82
2022/03/14 04:19:54;;;;;;;;;;;;;;;0.05;41.63;99269.70;1663234;84;25215;-81
2022/03/14 04:22:20;;;;;;;;;;;;;;;0.04;41.67;99277.44;1664334;85;21972;-81
2022/03/14 04:24:46;;;;;;;;;;;;;;;0.01;41.72;99274.45;1677660;84;25941;-81
2022/03/14 04:27:12;;;;;;;;;;;;;;;-0.03;41.75;99277.52;1675306;84;24478;-81
2022/03/14 04:29:39;;;;;;;;;;;;;;;0.03;41.77;99276.58;1680068;84;20501;-81
2022/03/14 04:32:06;;;;;;;;;;;;;;;0.08;41.81;99277.36;1685129;84;25086;-81
2022/03/14 04:34:32;;;;;;;;;;;;;;;0.09;41.84;99280.79;1674099;84;21958;-81
2022/03/14 04:36:58;;;;;;;;;;;;;;;0.15;41.90;99276.84;1679554;84;26080;-81
2022/03/14 04:39:25;;;;;;;;;;;;;;;0.08;41.95;99281.22;1698295;84;24541;-81
2022/03/14 04:41:51;;;;;;;;;;;;;;;-0.05;42.00;99279.68;1671056;85;20253;-81
2022/03/14 04:44:19;;;;;;;;;;;;;;;-0.11;42.06;99281.08;1681118;84;25146;-82
2022/03/14 04:46:45;;;;;;;;;;;;;;;-0.19;42.13;99281.17;1676403;84;22103;-82
2022/03/14 04:49:13;;;;;;;;;;;;;;;-0.21;42.20;99275.19;1705150;83;26148;-82
2022/03/14 04:51:40;;;;;;;;;;;;;;;-0.22;42.29;99274.77;1706092;83;25299;-82
2022/03/14 04:54:06;;;;;;;;;;;;;;;-0.21;42.36;99271.76;1705045;83;20598;-82
2022/03/14 04:56:33;;;;;;;;;;;;;;;-0.17;42.45;99278.59;1703717;83;25211;-82
2022/03/14 04:58:59;;;;;;;;;;;;;;;-0.17;42.52;99283.30;1702758;83;21958;-81
2022/03/14 05:01:25;;;;;;;;;;;;;;;-0.13;42.59;99280.23;1704181;83;25937;-82
2022/03/14 05:03:52;;;;;;;;;;;;;;;-0.15;42.65;99279.39;1700477;83;24623;-82
2022/03/14 05:06:19;;;;;;;;;;;;;;;-0.15;42.70;99280.68;1702942;83;20300;-82
2022/03/14 05:08:46;;;;;;;;;;;;;;;-0.22;42.76;99286.34;1706179;83;25046;-83
2022/03/14 05:11:14;;;;;;;;;;;;;;;-0.20;42.83;99287.61;1703742;83;21970;-82
2022/03/14 05:13:41;;;;;;;;;;;;;;;-0.20;42.88;99295.33;1702505;83;26728;-82
2022/03/14 05:16:07;;;;;;;;;;;;;;;-0.16;42.93;99294.41;1707991;83;24578;-82
2022/03/14 05:18:38;;;;;;;;;;;;;;;-0.12;43.03;99293.52;1701824;83;20324;-81
2022/03/14 05:21:04;;;;;;;;;;;;;;;-0.14;43.10;99296.53;1696920;83;24985;-81
2022/03/14 05:23:31;;;;;;;;;;;;;;;-0.11;43.18;99300.37;1702094;83;21985;-81
2022/03/14 05:25:57;;;;;;;;;;;;;;;-0.07;43.23;99302.88;1706194;83;21233;-81
2022/03/14 05:28:24;;;;;;;;;;;;;;;0.02;43.29;99309.61;1707330;83;20390;-82
2022/03/14 05:30:50;;;;;;;;;;;;;;;0.02;43.37;99310.89;1708318;83;20245;-82
2022/03/14 05:33:16;;;;;;;;;;;;;;;0.03;43.40;99310.03;1706511;83;25790;-82
2022/03/14 05:35:42;;;;;;;;;;;;;;;0.02;43.48;99307.03;1690775;83;23646;-82
2022/03/14 05:38:08;;;;;;;;;;;;;;;0.07;43.55;99312.97;1708108;83;26118;-82
2022/03/14 05:40:34;;;;;;;;;;;;;;;0.11;43.62;99318.48;1702923;83;24419;-82
2022/03/14 05:43:02;;;;;;;;;;;;;;;0.21;43.65;99308.93;1707049;83;20249;-82
2022/03/14 05:45:28;;;;;;;;;;;;;;;0.38;43.69;99319.38;1703857;83;25043;-82
2022/03/14 05:47:54;;;;;;;;;;;;;;;0.60;43.70;99322.47;1707650;83;21949;-82
2022/03/14 05:50:20;;;;;;;;;;;;;;;0.77;43.70;99324.34;1706657;83;25929;-82
2022/03/14 05:52:46;;;;;;;;;;;;;;;0.93;43.70;99327.52;1706813;83;24509;-82
2022/03/14 05:55:12;;;;;;;;;;;;;;;1.14;43.71;99328.89;1707351;83;20387;-82
2022/03/14 05:57:39;;;;;;;;;;;;;;;1.25;43.70;99331.66;1706286;83;25045;-82
2022/03/14 06:00:08;;;;;;;;;;;;;;;1.39;43.67;99337.02;1708074;83;22079;-81
2022/03/14 06:02:35;;;;;;;;;;;;;;;1.50;43.66;99336.38;1705247;83;26548;-81
2022/03/14 06:05:01;;;;;;;;;;;;;;;1.65;43.59;99336.08;1705806;83;24475;-81
2022/03/14 06:07:27;;;;;;;;;;;;;;;1.86;43.54;99338.66;1702708;83;20362;-81
2022/03/14 06:09:54;;;;;;;;;;;;;;;2.03;43.47;99339.16;1705572;83;25202;-81
2022/03/14 06:12:31;;;;;;;;;;;;;;;2.21;43.37;99344.39;1706579;83;22024;-81
2022/03/14 06:14:59;;;;;;;;;;;;;;;2.33;43.31;99333.80;1704908;83;26111;-82
2022/03/14 06:17:25;;;;;;;;;;;;;;;2.48;43.23;99338.61;1703067;83;24501;-82
2022/03/14 06:19:52;;;;;;;;;;;;;;;2.64;43.14;99334.78;1708240;83;20725;-82
2022/03/14 06:22:19;;;;;;;;;;;;;;;2.88;43.03;99334.20;1702322;83;25006;-82
2022/03/14 06:24:47;;;;;;;;;;;;;;;3.09;42.92;99338.43;1703054;83;22046;-82
2022/03/14 06:27:16;;;;;;;;;;;;;;;3.29;42.80;99337.47;1704543;83;26599;-82
2022/03/14 06:29:43;;;;;;;;;;;;;;;3.43;42.66;99339.27;1703151;83;24478;-82
2022/03/14 06:32:10;;;;;;;;;;;;;;;3.60;42.55;99342.69;1706737;83;20225;-82
2022/03/14 06:34:37;;;;;;;;;;;;;;;3.71;42.42;99341.48;1703570;83;24996;-82
2022/03/14 06:37:03;;;;;;;;;;;;;;;3.85;42.25;99340.26;1705867;83;22071;-81
2022/03/14 06:39:29;;;;;;;;;;;;;;;3.96;42.09;99339.51;1704217;83;25917;-82
2022/03/14 06:41:56;;;;;;;;;;;;;;;4.08;42.00;99340.45;1703410;83;24500;-82
2022/03/14 06:44:24;;;;;;;;;;;;;;;4.13;41.84;99336.84;1705968;83;20642;-82
2022/03/14 06:46:51;;;;;;;;;;;;;;;4.24;41.68;99336.97;1704800;83;24628;-82
2022/03/14 06:49:18;;;;;;;;;;;;;;;4.34;41.50;99327.57;1705654;83;22745;-82
2022/03/14 06:51:46;;;;;;;;;;;;;;;4.46;41.31;99332.83;1707140;83;26176;-83
2022/03/14 06:54:13;;;;;;;;;;;;;;;4.56;41.12;99334.23;1701702;83;24470;-83
2022/03/14 06:56:41;;;;;;;;;;;;;;;4.62;40.97;99338.78;1702402;83;20222;-83
2022/03/14 06:59:07;;;;;;;;;;;;;;;4.71;40.78;99343.27;1707554;83;25059;-82
2022/03/14 07:01:34;;;;;;;;;;;;;;;4.81;40.71;99349.84;1704087;83;22001;-84
2022/03/14 07:04:01;;;;;;;;;;;;;;;4.87;40.58;99356.14;1688371;83;26366;-84
2022/03/14 07:06:28;;;;;;;;;;;;;;;4.93;40.48;99358.09;1705753;83;24784;-84
2022/03/14 07:08:55;;;;;;;;;;;;;;;4.99;40.33;99347.97;1706711;83;20169;-84
2022/03/14 07:11:21;;;;;;;;;;;;;;;5.05;40.21;99342.14;1707817;83;25045;-84
2022/03/14 07:13:48;;;;;;;;;;;;;;;5.15;40.07;99359.53;1705985;83;20335;-84
2022/03/14 07:16:14;;;;;;;;;;;;;;;5.25;39.97;99357.48;1705274;83;26045;-84
2022/03/14 07:18:40;;;;;;;;;;;;;;;5.32;39.84;99357.68;1704922;83;24508;-81
2022/03/14 07:21:06;;;;;;;;;;;;;;;5.41;39.75;99371.19;1706636;83;20277;-81
2022/03/14 07:23:32;;;;;;;;;;;;;;;5.49;39.67;99369.64;1709868;83;24987;-81
2022/03/14 07:25:58;;;;;;;;;;;;;;;5.62;39.53;99376.56;1701398;83;21877;-81
2022/03/14 07:28:24;;;;;;;;;;;;;;;5.70;39.43;99375.83;1703103;84;26894;-81
2022/03/14 07:30:51;;;;;;;;;;;;;;;5.79;39.31;99374.19;1697402;84;24480;-81
2022/03/14 07:33:17;;;;;;;;;;;;;;;5.89;39.24;99366.05;1693235;84;20337;-81
2022/03/14 07:35:43;;;;;;;;;;;;;;;5.98;39.16;99373.12;1697157;84;25134;-81
2022/03/14 07:38:10;;;;;;;;;;;;;;;6.04;39.09;99367.27;1695751;83;21959;-82
2022/03/14 07:40:37;;;;;;;;;;;;;;;6.16;39.00;99369.88;1694376;84;26373;-82
2022/03/14 07:43:03;;;;;;;;;;;;;;;6.23;38.91;99365.66;1697032;84;24525;-82
2022/03/14 07:45:29;;;;;;;;;;;;;;;6.30;38.79;99371.48;1702345;84;20256;-82
2022/03/14 07:47:56;;;;;;;;;;;;;;;6.39;38.70;99375.48;1696695;84;20221;-81
2022/03/14 07:50:23;;;;;;;;;;;;;;;6.45;38.57;99373.95;1692444;84;22060;-82
2022/03/14 07:52:49;;;;;;;;;;;;;;;6.57;38.46;99370.89;1697676;84;26465;-82
2022/03/14 07:55:15;;;;;;;;;;;;;;;6.64;38.40;99374.50;1696075;83;24510;-82
2022/03/14 07:57:42;;;;;;;;;;;;;;;6.72;38.36;99382.84;1699174;84;20512;-82
2022/03/14 08:00:13;;;;;;;;;;;;;;;6.80;38.29;99381.25;1701251;84;24941;-82
2022/03/14 08:02:46;;;;;;;;;;;;;;;6.88;38.24;99374.42;1696763;84;22150;-82
2022/03/14 08:05:23;;;;;;;;;;;;;;;6.92;38.13;99384.67;1679989;83;21144;-82
2022/03/14 08:07:45;;;;;;;;;;;;;;;7.02;38.05;99383.39;1692225;83;24770;-82
2022/03/14 08:10:12;;;;;;;;;;;;;;;7.09;37.96;99384.00;1696362;83;20237;-83
2022/03/14 08:12:46;;;;;;;;;;;;;;;7.11;37.88;99380.86;1700597;84;25099;-83
2022/03/14 08:15:19;;;;;;;;;;;;;;;7.14;37.77;99371.19;1701409;84;22072;-83
2022/03/14 08:17:46;;;;;;;;;;;;;;;7.20;37.69;99381.77;1701146;84;26089;-83
2022/03/14 08:20:12;;;;;;;;;;;;;;;7.29;37.60;99375.36;1694941;84;24605;-82
2022/03/14 08:22:39;;;;;;;;;;;;;;;7.36;37.53;99382.02;1688252;83;20257;-83
2022/03/14 08:25:06;;;;;;;;;;;;;;;7.47;37.45;99379.81;1691265;83;25234;-83
2022/03/14 08:27:32;;;;;;;;;;;;;;;7.52;37.32;99376.55;1692977;83;22067;-83
2022/03/14 08:29:59;;;;;;;;;;;;;;;7.58;37.21;99384.56;1691090;83;25945;-83
2022/03/14 08:32:28;;;;;;;;;;;;;;;7.62;37.08;99383.52;1686019;83;24428;-82
2022/03/14 08:34:56;;;;;;;;;;;;;;;7.67;36.99;99385.02;1689392;84;20328;-82
2022/03/14 08:37:22;;;;;;;;;;;;;;;7.73;36.93;99382.14;1694071;83;25138;-83
2022/03/14 08:39:48;;;;;;;;;;;;;;;7.76;36.82;99383.75;1694766;83;21982;-83
2022/03/14 08:42:14;;;;;;;;;;;;;;;7.80;36.71;99384.03;1694946;83;21041;-83
2022/03/14 08:44:40;;;;;;;;;;;;;;;7.85;36.59;99388.14;1680851;84;24595;-83
2022/03/14 08:47:07;;;;;;;;;;;;;;;7.91;36.48;99387.84;1690164;84;20588;-82
2022/03/14 08:49:34;;;;;;;;;;;;;;;7.96;36.39;99387.66;1691584;84;25006;-82
2022/03/14 08:52:01;;;;;;;;;;;;;;;8.02;36.39;99396.97;1690393;83;22003;-83
2022/03/14 08:54:27;;;;;;;;;;;;;;;8.08;36.34;99396.22;1696275;83;26023;-82
2022/03/14 08:56:54;;;;;;;;;;;;;;;8.10;36.23;99387.03;1691960;83;24550;-83
2022/03/14 08:59:20;;;;;;;;;;;;;;;8.14;36.21;99392.50;1696864;84;20471;-83
2022/03/14 09:01:46;;;;;;;;;;;;;;;8.27;36.18;99385.83;1690513;84;25027;-83
2022/03/14 09:04:12;;;;;;;;;;;;;;;8.33;36.12;99389.05;1690530;83;22105;-83
2022/03/14 09:06:38;;;;;;;;;;;;;;;8.38;36.05;99385.77;1689620;84;26037;-83
2022/03/14 09:09:04;;;;;;;;;;;;;;;8.47;35.88;99391.00;1693517;83;24448;-83
2022/03/14 09:11:31;;;;;;;;;;;;;;;8.56;35.84;99388.45;1693286;83;20235;-83
2022/03/14 09:13:57;;;;;;;;;;;;;;;8.61;35.73;99397.76;1695579;83;25048;-83
2022/03/14 09:16:25;;;;;;;;;;;;;;;8.62;35.64;99404.64;1694839;83;22194;-83
2022/03/14 09:18:52;;;;;;;;;;;;;;;8.67;35.59;99394.02;1688413;83;26118;-83
2022/03/14 09:21:19;;;;;;;;;;;;;;;8.70;35.55;99409.52;1693272;83;24442;-83
2022/03/14 09:23:45;;;;;;;;;;;;;;;8.77;35.46;99408.32;1689087;84;20572;-83
2022/03/14 09:26:12;;;;;;;;;;;;;;;8.82;35.35;99414.17;1696606;83;25035;-83
2022/03/14 09:28:44;;;;;;;;;;;;;;;8.87;35.32;99406.97;1693923;84;22019;-83
2022/03/14 09:31:06;;;;;;;;;;;;;;;8.89;35.24;99408.20;1694439;83;26013;-83
2022/03/14 09:33:32;;;;;;;;;;;;;;;8.93;35.18;99413.66;1690218;83;24619;-83
2022/03/14 09:35:58;;;;;;;;;;;;;;;9.00;35.13;99413.27;1694785;84;20750;-83
2022/03/14 09:38:25;;;;;;;;;;;;;;;9.11;35.10;99408.38;1691753;83;25165;-83
2022/03/14 09:40:52;;;;;;;;;;;;;;;9.23;35.05;99409.56;1695544;83;22043;-83
2022/03/14 09:43:19;;;;;;;;;;;;;;;9.29;34.96;99405.80;1691430;83;25974;-83
2022/03/14 09:45:47;;;;;;;;;;;;;;;9.40;34.93;99406.12;1690637;83;24464;-83
2022/03/14 09:48:14;;;;;;;;;;;;;;;9.51;34.87;99404.67;1693809;83;20225;-83
2022/03/14 09:50:44;;;;;;;;;;;;;;;9.55;34.83;99413.19;1692302;84;26401;-83
2022/03/14 09:53:14;;;;;;;;;;;;;;;9.58;34.76;99411.75;1693999;83;22104;-83
2022/03/14 09:55:42;;;;;;;;;;;;;;;9.65;34.75;99407.42;1695757;84;26132;-83
2022/03/14 09:58:10;;;;;;;;;;;;;;;9.70;34.64;99408.98;1694691;83;25341;-83
2022/03/14 10:00:36;;;;;;;;;;;;;;;9.77;34.59;99411.19;1697438;83;20563;-83
2022/03/14 10:03:03;;;;;;;;;;;;;;;9.84;34.55;99411.27;1692510;83;25037;-83
2022/03/14 10:05:30;;;;;;;;;;;;;;;9.93;34.49;99413.86;1691730;84;21999;-83
2022/03/14 10:07:56;;;;;;;;;;;;;;;10.04;34.36;99405.84;1691307;84;26023;-83
2022/03/14 10:10:22;;;;;;;;;;;;;;;10.11;34.23;99403.76;1692195;83;20476;-83
2022/03/14 10:12:57;;;;;;;;;;;;;;;10.21;34.07;99403.69;1691899;84;20309;-83
2022/03/14 10:15:16;;;;;;;;;;;;;;;10.31;33.90;99398.34;1691005;84;25037;-83
2022/03/14 10:17:42;;;;;;;;;;;;;;;10.41;33.86;99407.88;1697690;83;22069;-84
2022/03/14 10:20:08;;;;;;;;;;;;;;;10.45;33.65;99407.63;1693680;83;26038;-83
2022/03/14 10:22:36;;;;;;;;;;;;;;;10.51;33.52;99401.67;1692548;83;24492;-83
2022/03/14 10:25:04;;;;;;;;;;;;;;;10.58;33.36;99399.97;1696592;83;20253;-83
2022/03/14 10:27:32;;;;;;;;;;;;;;;10.67;33.21;99399.91;1701568;83;25053;-83
2022/03/14 10:29:58;;;;;;;;;;;;;;;10.74;33.21;99406.52;1707104;83;21950;-83
2022/03/14 10:32:29;;;;;;;;;;;;;;;10.82;33.18;99405.61;1700894;83;25988;-83
2022/03/14 10:35:01;;;;;;;;;;;;;;;10.87;33.09;99408.81;1709524;83;24408;-83
2022/03/14 10:37:31;;;;;;;;;;;;;;;10.93;32.89;99407.63;1703449;83;20356;-83
2022/03/14 10:39:59;;;;;;;;;;;;;;;10.99;32.77;99401.59;1701694;83;25027;-83
2022/03/14 10:42:25;;;;;;;;;;;;;;;11.05;32.65;99402.56;1703463;83;21988;-83
2022/03/14 10:44:52;;;;;;;;;;;;;;;11.12;32.57;99401.30;1703566;83;26083;-83
2022/03/14 10:47:23;;;;;;;;;;;;;;;11.15;32.31;99393.25;1703594;83;24477;-83
2022/03/14 10:49:49;;;;;;;;;;;;;;;11.18;32.24;99395.67;1704825;83;20280;-83
2022/03/14 10:52:20;;;;;;;;;;;;;;;11.25;32.17;99390.94;1704411;83;25034;-83
2022/03/14 10:54:46;;;;;;;;;;;;;;;11.31;32.10;99382.27;1704669;83;23047;-83
2022/03/14 10:57:14;;;;;;;;;;;;;;;11.37;32.06;99385.00;1702454;83;26064;-84
2022/03/14 10:59:50;;;;;;;;;;;;;;;11.40;32.02;99380.88;1702525;83;25278;-83
2022/03/14 11:02:22;;;;;;;;;;;;;;;11.43;31.97;99383.80;1703228;83;20276;-83
2022/03/14 11:04:52;;;;;;;;;;;;;;;11.50;31.93;99374.19;1705528;83;25051;-83
2022/03/14 11:07:19;;;;;;;;;;;;;;;11.60;31.84;99381.05;1711308;83;22099;-83
2022/03/14 11:09:47;;;;;;;;;;;;;;;11.55;31.69;99370.83;1707334;83;26027;-83
2022/03/14 11:12:15;;;;;;;;;;;;;;;11.49;31.59;99371.19;1709236;83;24523;-83
2022/03/14 11:14:41;;;;;;;;;;;;;;;11.55;31.53;99369.98;1704391;83;20229;-83
2022/03/14 11:17:11;;;;;;;;;;;;;;;11.60;31.35;99370.09;1708930;83;25045;-83
2022/03/14 11:19:38;;;;;;;;;;;;;;;11.73;31.29;99371.06;1705433;83;21989;-83
2022/03/14 11:22:06;;;;;;;;;;;;;;;11.79;31.17;99369.01;1712594;83;26796;-83
2022/03/14 11:24:33;;;;;;;;;;;;;;;11.85;31.04;99355.53;1704411;83;24453;-83
2022/03/14 11:26:59;;;;;;;;;;;;;;;11.84;30.83;99353.37;1700420;83;20453;-83
2022/03/14 11:29:27;;;;;;;;;;;;;;;11.85;30.83;99347.66;1702285;84;25187;-83
2022/03/14 11:31:55;;;;;;;;;;;;;;;11.88;30.80;99350.12;1696975;84;22494;-83
2022/03/14 11:34:26;;;;;;;;;;;;;;;11.97;30.71;99354.33;1696254;84;26052;-83
2022/03/14 11:36:50;;;;;;;;;;;;;;;12.13;30.56;99356.86;1692248;83;24632;-83
2022/03/14 11:39:17;;;;;;;;;;;;;;;12.20;30.45;99346.83;1692024;84;20245;-83
2022/03/14 11:41:45;;;;;;;;;;;;;;;12.22;30.35;99354.97;1683940;84;20257;-83
2022/03/14 11:44:12;;;;;;;;;;;;;;;12.25;30.35;99356.58;1694025;83;22031;-83
2022/03/14 11:46:38;;;;;;;;;;;;;;;12.27;30.24;99361.27;1697033;84;26084;-83
2022/03/14 11:49:15;;;;;;;;;;;;;;;12.30;30.19;99354.50;1702094;84;24449;-83
2022/03/14 11:51:45;;;;;;;;;;;;;;;12.42;30.13;99352.44;1697880;84;20519;-83
2022/03/14 11:54:13;;;;;;;;;;;;;;;12.55;30.01;99357.27;1696131;83;24976;-83
2022/03/14 11:56:41;;;;;;;;;;;;;;;12.60;30.01;99353.87;1694491;84;23269;-83
2022/03/14 11:59:10;;;;;;;;;;;;;;;12.67;29.99;99358.28;1689477;83;26781;-82
2022/03/14 12:01:49;;;;;;;;;;;;;;;12.70;29.93;99352.38;1690754;84;24476;-83
2022/03/14 12:04:34;;;;;;;;;;;;;;;12.73;29.86;99354.80;1694399;84;20427;-83
2022/03/14 12:07:03;;;;;;;;;;;;;;;12.74;29.83;99352.55;1703968;84;24988;-83
2022/03/14 12:09:33;;;;;;;;;;;;;;;12.74;29.70;99360.89;1691381;84;22081;-83
2022/03/14 12:12:01;;;;;;;;;;;;;;;12.73;29.61;99354.80;1693972;84;25989;-82
2022/03/14 12:14:36;;;;;;;;;;;;;;;12.80;29.54;99356.10;1699352;84;24429;-82
2022/03/14 12:17:13;;;;;;;;;;;;;;;12.85;29.46;99355.80;1700056;84;20241;-83
2022/03/14 12:19:42;;;;;;;;;;;;;;;12.94;29.38;99362.61;1661731;84;25090;-82
2022/03/14 12:22:13;;;;;;;;;;;;;;;12.97;29.18;99357.64;1666781;85;22010;-83
2022/03/14 12:24:42;;;;;;;;;;;;;;;12.94;29.13;99356.05;1667384;85;26020;-82
2022/03/14 12:27:15;;;;;;;;;;;;;;;12.77;28.93;99357.59;1661118;84;24273;-82
2022/03/14 12:29:42;;;;;;;;;;;;;;;12.68;28.77;99356.03;1627422;85;20365;-82
2022/03/14 12:32:25;;;;;;;;;;;;;;;12.79;28.71;99362.29;1675396;84;25577;-82
2022/03/14 12:35:05;;;;;;;;;;;;;;;12.94;28.65;99361.30;1661924;84;22001;-82
2022/03/14 12:37:38;;;;;;;;;;;;;;;13.05;28.45;99359.75;1691489;83;26122;-82
2022/03/14 12:40:08;;;;;;;;;;;;;;;13.12;28.47;99359.77;1665942;84;24554;-82
2022/03/14 12:42:39;;;;;;;;;;;;;;;13.14;28.42;99353.95;1663650;84;20509;-82
2022/03/14 12:45:19;;;;;;;;;;;;;;;13.17;28.42;99359.84;1699309;84;25073;-82
2022/03/14 12:47:50;;;;;;;;;;;;;;;13.25;28.21;99356.72;1687281;83;21878;-82
2022/03/14 12:50:34;;;;;;;;;;;;;;;13.28;28.12;99363.08;1688109;83;26019;-82
2022/03/14 12:53:01;;;;;;;;;;;;;;;13.32;28.17;99356.66;1688639;83;24509;-81